createdAt,value
2023-01-30T00:01:55.442Z,100504.09
2023-01-30T00:04:23.390Z,100512.72
2023-01-30T00:06:50.842Z,100511.00
2023-01-30T00:09:18.300Z,100508.41
2023-01-30T00:11:46.907Z,100509.22
2023-01-30T00:14:14.606Z,100505.84
2023-01-30T00:16:42.944Z,100492.84
2023-01-30T00:19:10.925Z,100489.38
2023-01-30T00:21:38.477Z,100495.41
2023-01-30T00:24:06.660Z,100498.78
2023-01-30T00:26:34.626Z,100500.31
2023-01-30T00:29:02.325Z,100494.28
2023-01-30T00:31:31.300Z,100493.47
2023-01-30T00:33:59.194Z,100497.66
2023-01-30T00:36:27.171Z,100499.44
2023-01-30T00:38:57.173Z,100493.47
2023-01-30T00:41:44.993Z,100491.66
2023-01-30T00:44:38.913Z,100495.09
2023-01-30T00:47:09.382Z,100491.59
2023-01-30T00:49:37.884Z,100489.03
2023-01-30T00:52:06.133Z,100488.84
2023-01-30T00:54:34.592Z,100487.94
2023-01-30T00:57:01.955Z,100479.31
2023-01-30T00:59:29.254Z,100479.28
2023-01-30T01:01:56.803Z,100477.50
2023-01-30T01:04:24.168Z,100477.44
2023-01-30T01:06:51.553Z,100469.72
2023-01-30T01:09:20.113Z,100467.22
2023-01-30T01:11:47.479Z,100467.19
2023-01-30T01:14:14.662Z,100463.81
2023-01-30T01:16:42.383Z,100450.91
2023-01-30T01:19:09.859Z,100450.97
2023-01-30T01:21:37.355Z,100450.13
2023-01-30T01:24:05.521Z,100456.25
2023-01-30T01:26:34.119Z,100448.38
2023-01-30T01:29:01.535Z,100444.91
2023-01-30T01:31:30.269Z,100443.16
2023-01-30T01:33:57.789Z,100441.38
2023-01-30T01:39:13.449Z,100450.97
2023-01-30T01:41:40.778Z,100443.16
2023-01-30T01:44:09.434Z,100429.25
2023-01-30T01:46:36.934Z,100429.06
2023-01-30T01:49:33.873Z,100433.25
2023-01-30T01:52:04.192Z,100426.47
2023-01-30T01:54:34.626Z,100417.81
2023-01-30T01:57:03.285Z,100416.03
2023-01-30T01:59:32.259Z,100410.84
2023-01-30T02:02:01.343Z,100405.69
2023-01-30T02:04:48.244Z,100404.78
2023-01-30T02:07:15.905Z,100400.47
2023-01-30T02:09:43.691Z,100400.25
2023-01-30T02:12:11.462Z,100388.31
2023-01-30T02:14:38.874Z,100377.00
2023-01-30T02:17:06.197Z,100383.97
2023-01-30T02:19:43.427Z,100383.94
2023-01-30T02:22:10.616Z,100382.91
2023-01-30T02:24:50.686Z,100374.31
2023-01-30T02:27:23.152Z,100365.66
2023-01-30T02:29:56.257Z,100362.25
2023-01-30T02:32:24.004Z,100362.22
2023-01-30T02:35:11.847Z,100359.66
2023-01-30T02:37:45.132Z,100354.56
2023-01-30T02:40:16.937Z,100361.41
2023-01-30T02:42:50.489Z,100350.03
2023-01-30T02:45:22.572Z,100343.94
2023-01-30T02:48:12.584Z,100336.06
2023-01-30T02:50:43.557Z,100326.66
2023-01-30T02:53:10.975Z,100326.75
2023-01-30T02:55:40.801Z,100321.53
2023-01-30T02:58:08.623Z,100322.41
2023-01-30T03:00:48.672Z,100305.91
2023-01-30T03:03:22.808Z,100311.87
2023-01-30T03:05:53.931Z,100308.50
2023-01-30T03:08:36.886Z,100302.44
2023-01-30T03:11:07.734Z,100304.94
2023-01-30T03:13:47.748Z,100307.34
2023-01-30T03:16:17.881Z,100312.41
2023-01-30T03:18:45.686Z,100301.50
2023-01-30T03:21:15.747Z,100306.69
2023-01-30T03:23:47.512Z,100305.88
2023-01-30T03:26:19.484Z,100303.94
2023-01-30T03:28:49.679Z,100303.06
2023-01-30T03:31:17.746Z,100304.94
2023-01-30T03:33:45.625Z,100306.44
2023-01-30T03:36:13.568Z,100305.78
2023-01-30T03:38:41.420Z,100302.28
2023-01-30T03:41:09.343Z,100293.59
2023-01-30T03:43:37.091Z,100283.19
2023-01-30T03:46:05.881Z,100284.81
2023-01-30T03:48:33.368Z,100287.50
2023-01-30T03:51:01.147Z,100283.00
2023-01-30T03:53:29.895Z,100281.37
2023-01-30T03:55:57.353Z,100285.47
2023-01-30T03:58:25.810Z,100281.09
2023-01-30T04:00:57.398Z,100282.72
2023-01-30T04:03:25.947Z,100277.50
2023-01-30T04:05:55.798Z,100272.38
2023-01-30T04:08:23.351Z,100274.09
2023-01-30T04:10:51.204Z,100268.16
2023-01-30T04:13:18.843Z,100266.63
2023-01-30T04:15:46.350Z,100256.84
2023-01-30T04:18:14.721Z,100257.78
2023-01-30T04:20:42.915Z,100256.03
2023-01-30T04:23:10.815Z,100257.03
2023-01-30T04:25:39.326Z,100264.78
2023-01-30T04:28:07.908Z,100257.00
2023-01-30T04:30:35.761Z,100260.50
2023-01-30T04:33:04.786Z,100257.81
2023-01-30T04:35:32.770Z,100253.50
2023-01-30T04:38:00.645Z,100250.78
2023-01-30T04:40:29.109Z,100253.25
2023-01-30T04:42:56.772Z,100245.53
2023-01-30T04:45:24.858Z,100232.66
2023-01-30T04:47:52.804Z,100231.88
2023-01-30T04:50:20.549Z,100225.78
2023-01-30T04:52:48.103Z,100222.28
2023-01-30T04:55:16.832Z,100226.38
2023-01-30T04:57:44.475Z,100220.56
2023-01-30T05:00:12.739Z,100229.12
2023-01-30T05:02:41.830Z,100232.47
2023-01-30T05:05:09.778Z,100227.34
2023-01-30T05:07:37.225Z,100217.03
2023-01-30T05:10:05.816Z,100220.37
2023-01-30T05:12:33.564Z,100214.44
2023-01-30T05:15:01.567Z,100219.56
2023-01-30T05:17:29.388Z,100211.78
2023-01-30T05:19:57.827Z,100218.69
2023-01-30T05:22:25.154Z,100214.34
2023-01-30T05:24:52.804Z,100221.09
2023-01-30T05:27:20.040Z,100218.72
2023-01-30T05:29:47.326Z,100210.97
2023-01-30T05:32:15.236Z,100214.50
2023-01-30T05:34:42.450Z,100211.88
2023-01-30T05:37:09.929Z,100213.69
2023-01-30T05:39:37.602Z,100201.44
2023-01-30T05:42:04.915Z,100204.00
2023-01-30T05:44:32.319Z,100201.09
2023-01-30T05:47:00.099Z,100202.81
2023-01-30T05:49:27.339Z,100203.00
2023-01-30T05:51:54.948Z,100198.75
2023-01-30T05:54:22.738Z,100201.31
2023-01-30T05:56:50.567Z,100200.56
2023-01-30T05:59:18.760Z,100208.75
2023-01-30T06:01:46.458Z,100214.03
2023-01-30T06:04:13.992Z,100206.37
2023-01-30T06:06:41.406Z,100216.63
2023-01-30T06:09:09.660Z,100214.09
2023-01-30T06:11:37.297Z,100211.56
2023-01-30T06:14:04.591Z,100211.50
2023-01-30T06:16:32.025Z,100212.31
2023-01-30T06:18:59.822Z,100211.44
2023-01-30T06:21:27.271Z,100210.69
2023-01-30T06:23:54.639Z,100200.41
2023-01-30T06:26:22.254Z,100212.50
2023-01-30T06:28:49.901Z,100208.28
2023-01-30T06:31:18.500Z,100203.09
2023-01-30T06:33:46.210Z,100207.19
2023-01-30T06:36:13.529Z,100203.25
2023-01-30T06:38:40.724Z,100203.06
2023-01-30T06:41:08.370Z,100198.69
2023-01-30T06:43:35.608Z,100197.78
2023-01-30T06:46:02.861Z,100199.41
2023-01-30T06:48:30.894Z,100184.06
2023-01-30T06:50:58.189Z,100183.91
2023-01-30T06:53:30.384Z,100175.53
2023-01-30T06:55:58.598Z,100185.34
2023-01-30T06:58:26.464Z,100178.41
2023-01-30T07:00:54.052Z,100191.22
2023-01-30T07:03:21.827Z,100186.03
2023-01-30T07:05:49.411Z,100178.69
2023-01-30T07:08:17.312Z,100178.56
2023-01-30T07:10:45.505Z,100178.53
2023-01-30T07:13:13.177Z,100170.06
2023-01-30T07:15:40.694Z,100172.91
2023-01-30T07:18:08.800Z,100174.62
2023-01-30T07:20:36.280Z,100166.84
2023-01-30T07:23:03.972Z,100173.81
2023-01-30T07:25:31.898Z,100179.81
2023-01-30T07:28:01.234Z,100170.28
2023-01-30T07:30:32.255Z,100165.97
2023-01-30T07:33:00.693Z,100171.06
2023-01-30T07:35:30.382Z,100164.25
2023-01-30T07:37:58.380Z,100164.25
2023-01-30T07:40:26.912Z,100169.53
2023-01-30T07:43:06.368Z,100163.47
2023-01-30T07:45:45.217Z,100169.59
2023-01-30T07:48:15.158Z,100160.94
2023-01-30T07:50:43.244Z,100157.47
2023-01-30T07:53:14.419Z,100150.53
2023-01-30T07:55:42.484Z,100150.53
2023-01-30T07:58:13.805Z,100153.13
2023-01-30T08:00:41.419Z,100151.41
2023-01-30T08:03:16.574Z,100146.19
2023-01-30T08:05:46.953Z,100132.28
2023-01-30T08:08:15.091Z,100128.72
2023-01-30T08:10:43.185Z,100125.25
2023-01-30T08:13:10.943Z,100116.56
2023-01-30T08:15:38.889Z,100112.13
2023-01-30T08:18:09.132Z,100100.88
2023-01-30T08:20:36.677Z,100082.78
2023-01-30T08:23:05.274Z,100075.81
2023-01-30T08:25:32.770Z,100068.00
2023-01-30T08:28:00.651Z,100070.59
2023-01-30T08:30:30.586Z,100063.59
2023-01-30T08:32:58.798Z,100066.88
2023-01-30T08:35:26.332Z,100069.31
2023-01-30T08:37:56.317Z,100071.16
2023-01-30T08:40:23.775Z,100069.41
2023-01-30T08:42:51.355Z,100065.91
2023-01-30T08:45:19.236Z,100056.53
2023-01-30T08:47:47.199Z,100058.13
2023-01-30T08:50:14.740Z,100058.22
2023-01-30T08:52:42.673Z,100073.12
2023-01-30T08:55:10.679Z,100058.16
2023-01-30T08:57:38.248Z,100060.53
2023-01-30T09:00:06.770Z,100056.94
2023-01-30T09:02:34.535Z,100053.41
2023-01-30T09:05:02.159Z,100055.91
2023-01-30T09:07:30.039Z,100057.37
2023-01-30T09:09:57.525Z,100048.75
2023-01-30T09:12:25.000Z,100051.63
2023-01-30T09:14:58.050Z,100047.88
2023-01-30T09:17:25.995Z,100046.84
2023-01-30T09:19:54.054Z,100035.72
2023-01-30T09:22:21.450Z,100033.87
2023-01-30T09:24:48.899Z,100037.84
2023-01-30T09:27:17.033Z,100040.25
2023-01-30T09:29:45.534Z,100025.78
2023-01-30T09:32:13.140Z,100017.81
2023-01-30T09:34:40.973Z,100020.91
2023-01-30T09:37:08.506Z,100023.13
2023-01-30T09:39:36.089Z,100013.59
2023-01-30T09:42:06.826Z,100018.53
2023-01-30T09:45:12.763Z,100011.66
2023-01-30T09:47:56.127Z,100013.44
2023-01-30T09:50:48.375Z,100009.25
2023-01-30T09:53:56.775Z,99998.47
2023-01-30T09:56:25.789Z,99987.38
2023-01-30T09:59:02.612Z,99990.00
2023-01-30T10:01:37.341Z,99982.66
2023-01-30T10:04:17.772Z,99967.25
2023-01-30T10:07:11.663Z,99970.47
2023-01-30T10:09:42.630Z,99968.13
2023-01-30T10:12:19.944Z,99956.50
2023-01-30T10:14:55.488Z,99957.06
2023-01-30T10:17:38.773Z,99953.50
2023-01-30T10:20:22.334Z,99944.34
2023-01-30T10:23:10.933Z,99932.34
2023-01-30T10:25:45.438Z,99930.28
2023-01-30T10:28:38.795Z,99931.47
2023-01-30T10:31:19.210Z,99929.09
2023-01-30T10:34:11.735Z,99915.00
2023-01-30T10:36:54.830Z,99912.19
2023-01-30T10:39:28.377Z,99902.81
2023-01-30T10:42:11.945Z,99903.78
2023-01-30T10:44:42.965Z,99884.19
2023-01-30T10:47:22.089Z,99883.22
2023-01-30T10:49:52.491Z,99879.53
2023-01-30T10:52:50.914Z,99869.59
2023-01-30T10:55:40.054Z,99860.22
2023-01-30T10:58:32.758Z,99842.00
2023-01-30T11:01:04.541Z,99839.78
2023-01-30T11:03:47.236Z,99839.28
2023-01-30T11:06:17.667Z,99828.91
2023-01-30T11:08:45.729Z,99828.75
2023-01-30T11:11:27.685Z,99823.25
2023-01-30T11:14:09.554Z,99815.44
2023-01-30T11:16:44.991Z,99808.97
2023-01-30T11:19:20.064Z,99808.50
2023-01-30T11:21:52.937Z,99800.81
2023-01-30T11:24:23.645Z,99790.19
2023-01-30T11:26:53.174Z,99778.72
2023-01-30T11:29:32.816Z,99771.19
2023-01-30T11:32:19.998Z,99763.94
2023-01-30T11:35:04.584Z,99765.41
2023-01-30T11:37:34.658Z,99764.94
2023-01-30T11:40:31.165Z,99760.31
2023-01-30T11:43:03.369Z,99753.94
2023-01-30T11:45:36.824Z,99749.50
2023-01-30T11:48:23.559Z,99744.38
2023-01-30T11:51:04.544Z,99733.44
2023-01-30T11:53:51.318Z,99724.16
2023-01-30T11:56:33.888Z,99715.88
2023-01-30T11:59:07.519Z,99722.38
2023-01-30T12:01:36.576Z,99718.81
2023-01-30T12:04:09.444Z,99715.66
2023-01-30T12:06:39.684Z,99719.16
2023-01-30T12:09:32.250Z,99717.47
2023-01-30T12:11:59.868Z,99716.16
2023-01-30T12:14:45.762Z,99714.03
2023-01-30T12:17:23.717Z,99704.72
2023-01-30T12:20:06.275Z,99701.59
2023-01-30T12:22:58.567Z,99692.72
2023-01-30T12:25:27.291Z,99685.44
2023-01-30T12:28:03.366Z,99668.72
2023-01-30T12:31:36.231Z,99669.91
2023-01-30T12:34:04.515Z,99668.50
2023-01-30T12:37:02.320Z,99652.72
2023-01-30T12:40:07.227Z,99645.56
2023-01-30T12:43:01.504Z,99639.03
2023-01-30T12:45:34.776Z,99638.78
2023-01-30T12:48:30.329Z,99654.31
2023-01-30T12:51:10.722Z,99641.13
2023-01-30T12:54:00.398Z,99647.56
2023-01-30T12:56:33.940Z,99648.66
2023-01-30T12:59:22.364Z,99650.47
2023-01-30T13:01:55.798Z,99641.34
2023-01-30T13:04:56.202Z,99622.50
2023-01-30T13:07:49.513Z,99615.97
2023-01-30T13:10:26.540Z,99606.47
2023-01-30T13:13:12.255Z,99592.59
2023-01-30T13:16:04.511Z,99583.16
2023-01-30T13:18:53.364Z,99583.03
2023-01-30T13:21:25.999Z,99568.47
2023-01-30T13:24:24.719Z,99576.22
2023-01-30T13:26:55.060Z,99594.34
2023-01-30T13:29:25.528Z,99600.16
2023-01-30T13:32:00.322Z,99598.53
2023-01-30T13:34:35.039Z,99598.72
2023-01-30T13:37:07.801Z,99596.63
2023-01-30T13:39:58.661Z,99598.50
2023-01-30T13:42:33.565Z,99597.75
2023-01-30T13:45:02.060Z,99618.38
2023-01-30T13:47:48.673Z,99616.03
2023-01-30T13:50:42.105Z,99598.47
2023-01-30T13:53:40.098Z,99605.37
2023-01-30T13:56:41.232Z,99587.34
2023-01-30T13:59:21.772Z,99579.06
2023-01-30T14:02:04.796Z,99589.97
2023-01-30T14:04:39.654Z,99574.25
2023-01-30T14:07:39.469Z,99581.19
2023-01-30T14:10:07.365Z,99571.12
2023-01-30T14:12:51.093Z,99574.25
2023-01-30T14:15:24.456Z,99573.00
2023-01-30T14:18:02.454Z,99570.84
2023-01-30T14:20:36.120Z,99577.59
2023-01-30T14:23:20.531Z,99571.72
2023-01-30T14:25:53.408Z,99563.03
2023-01-30T14:28:20.943Z,99567.66
2023-01-30T14:30:53.714Z,99557.91
2023-01-30T14:33:21.206Z,99571.59
2023-01-30T14:36:11.545Z,99582.63
2023-01-30T14:38:40.788Z,99586.66
2023-01-30T14:41:23.984Z,99588.31
2023-01-30T14:43:59.005Z,99576.47
2023-01-30T14:46:26.673Z,99577.66
2023-01-30T14:49:05.079Z,99564.69
2023-01-30T14:51:37.267Z,99564.72
2023-01-30T14:54:08.552Z,99565.34
2023-01-30T14:56:46.725Z,99559.69
2023-01-30T14:59:17.212Z,99554.50
2023-01-30T15:02:14.409Z,99563.69
2023-01-30T15:05:05.641Z,99568.78
2023-01-30T15:07:40.984Z,99568.09
2023-01-30T15:10:14.588Z,99571.88
2023-01-30T15:13:00.814Z,99573.06
2023-01-30T15:15:34.266Z,99571.28
2023-01-30T15:18:28.187Z,99568.34
2023-01-30T15:21:26.810Z,99571.88
2023-01-30T15:24:16.697Z,99569.41
2023-01-30T15:27:29.030Z,99573.59
2023-01-30T15:30:22.862Z,99570.66
2023-01-30T15:33:07.814Z,99585.75
2023-01-30T15:35:35.801Z,99588.63
2023-01-30T15:38:03.320Z,99589.28
2023-01-30T15:40:31.456Z,99586.84
2023-01-30T15:43:04.563Z,99595.38
2023-01-30T15:45:49.211Z,99603.00
2023-01-30T15:48:29.183Z,99612.63
2023-01-30T15:50:59.486Z,99611.34
2023-01-30T15:53:31.225Z,99615.31
2023-01-30T15:56:01.055Z,99611.56
2023-01-30T15:58:29.503Z,99616.03
2023-01-30T16:00:59.763Z,99609.53
2023-01-30T16:03:31.858Z,99610.59
2023-01-30T16:05:59.612Z,99623.66
2023-01-30T16:08:30.061Z,99622.22
2023-01-30T16:10:58.026Z,99620.41
2023-01-30T16:13:25.505Z,99612.44
2023-01-30T16:15:54.605Z,99606.16
2023-01-30T16:18:29.911Z,99603.88
2023-01-30T16:21:02.398Z,99609.75
2023-01-30T16:23:57.763Z,99611.53
2023-01-30T16:26:25.631Z,99610.00
2023-01-30T16:29:03.446Z,99604.69
2023-01-30T16:31:33.158Z,99606.06
2023-01-30T16:34:01.184Z,99618.91
2023-01-30T16:36:45.807Z,99621.16
2023-01-30T16:39:35.334Z,99617.56
2023-01-30T16:42:25.564Z,99627.00
2023-01-30T16:45:21.266Z,99625.22
2023-01-30T16:47:49.186Z,99625.97
2023-01-30T16:50:20.114Z,99618.09
2023-01-30T16:52:52.064Z,99618.91
2023-01-30T16:55:21.876Z,99626.75
2023-01-30T16:58:01.168Z,99626.19
2023-01-30T17:00:36.130Z,99635.41
2023-01-30T17:03:18.521Z,99629.41
2023-01-30T17:05:48.653Z,99632.03
2023-01-30T17:08:48.265Z,99627.34
2023-01-30T17:11:36.233Z,99629.56
2023-01-30T17:14:31.315Z,99619.84
2023-01-30T17:17:18.848Z,99615.56
2023-01-30T17:19:46.797Z,99602.84
2023-01-30T17:22:24.596Z,99612.19
2023-01-30T17:24:54.118Z,99629.81
2023-01-30T17:27:22.041Z,99616.12
2023-01-30T17:29:49.713Z,99621.16
2023-01-30T17:32:17.323Z,99616.12
2023-01-30T17:34:45.380Z,99612.78
2023-01-30T17:37:18.399Z,99610.53
2023-01-30T17:39:46.238Z,99617.47
2023-01-30T17:42:15.515Z,99611.81
2023-01-30T17:44:42.947Z,99610.91
2023-01-30T17:47:13.999Z,99604.59
2023-01-30T17:49:41.628Z,99599.34
2023-01-30T17:52:09.060Z,99594.81
2023-01-30T17:54:36.960Z,99592.84
2023-01-30T17:57:06.523Z,99588.78
2023-01-30T17:59:34.004Z,99604.03
2023-01-30T18:02:02.022Z,99600.72
2023-01-30T18:04:29.956Z,99598.72
2023-01-30T18:07:04.005Z,99604.34
2023-01-30T18:09:32.270Z,99588.97
2023-01-30T18:11:59.846Z,99597.47
2023-01-30T18:14:27.873Z,99595.09
2023-01-30T18:17:00.158Z,99600.09
2023-01-30T18:19:28.575Z,99600.25
2023-01-30T18:21:58.298Z,99614.88
2023-01-30T18:24:26.095Z,99610.63
2023-01-30T18:26:53.584Z,99608.06
2023-01-30T18:29:21.577Z,99602.38
2023-01-30T18:31:49.356Z,99593.12
2023-01-30T18:34:16.906Z,99601.75
2023-01-30T18:36:45.025Z,99613.31
2023-01-30T18:39:12.944Z,99612.16
2023-01-30T18:41:40.752Z,99618.72
2023-01-30T18:44:10.642Z,99615.62
2023-01-30T18:46:38.156Z,99624.38
2023-01-30T18:49:06.569Z,99613.91
2023-01-30T18:51:34.803Z,99613.22
2023-01-30T18:54:02.497Z,99628.31
2023-01-30T18:56:32.104Z,99623.28
2023-01-30T18:59:04.954Z,99626.53
2023-01-30T19:01:38.694Z,99627.87
2023-01-30T19:04:09.293Z,99637.47
2023-01-30T19:06:39.148Z,99643.34
2023-01-30T19:09:07.567Z,99639.97
2023-01-30T19:11:53.889Z,99643.13
2023-01-30T19:14:21.757Z,99647.22
2023-01-30T19:16:51.304Z,99637.38
2023-01-30T19:19:19.007Z,99644.50
2023-01-30T19:21:47.856Z,99632.12
2023-01-30T19:24:16.360Z,99632.97
2023-01-30T19:26:43.991Z,99628.72
2023-01-30T19:29:11.759Z,99630.25
2023-01-30T19:31:39.367Z,99625.81
2023-01-30T19:34:07.855Z,99636.84
2023-01-30T19:36:36.334Z,99631.66
2023-01-30T19:39:05.944Z,99635.22
2023-01-30T19:41:35.224Z,99623.38
2023-01-30T19:44:06.036Z,99624.50
2023-01-30T19:46:34.131Z,99626.91
2023-01-30T19:49:03.412Z,99628.16
2023-01-30T19:51:34.178Z,99635.56
2023-01-30T19:54:06.961Z,99641.41
2023-01-30T19:56:35.059Z,99641.28
2023-01-30T19:59:03.106Z,99644.53
2023-01-30T20:01:35.545Z,99652.25
2023-01-30T20:04:06.133Z,99638.19
2023-01-30T20:06:37.341Z,99631.16
2023-01-30T20:09:07.470Z,99634.53
2023-01-30T20:11:36.599Z,99626.78
2023-01-30T20:14:06.594Z,99620.41
2023-01-30T20:16:35.716Z,99618.41
2023-01-30T20:19:06.492Z,99614.22
2023-01-30T20:21:36.165Z,99602.69
2023-01-30T20:24:04.416Z,99607.13
2023-01-30T20:26:35.405Z,99596.19
2023-01-30T20:29:04.657Z,99589.22
2023-01-30T20:31:32.805Z,99596.09
2023-01-30T20:34:02.592Z,99589.56
2023-01-30T20:36:30.469Z,99583.25
2023-01-30T20:39:01.863Z,99590.00
2023-01-30T20:41:32.516Z,99587.53
2023-01-30T20:44:00.711Z,99593.09
2023-01-30T20:46:30.487Z,99594.47
2023-01-30T20:49:01.314Z,99596.56
2023-01-30T20:51:31.253Z,99592.06
2023-01-30T20:54:01.602Z,99592.38
2023-01-30T20:56:34.280Z,99575.03
2023-01-30T20:59:03.548Z,99568.97
2023-01-30T21:01:31.190Z,99563.34
2023-01-30T21:03:58.650Z,99560.34
2023-01-30T21:06:41.532Z,99564.91
2023-01-30T21:09:15.241Z,99561.47
2023-01-30T21:11:42.995Z,99565.66
2023-01-30T21:14:10.823Z,99571.69
2023-01-30T21:16:38.460Z,99584.91
2023-01-30T21:19:08.526Z,99596.09
2023-01-30T21:21:40.135Z,99592.50
2023-01-30T21:24:12.525Z,99601.16
2023-01-30T21:26:46.105Z,99594.47
2023-01-30T21:29:15.726Z,99612.78
2023-01-30T21:31:44.715Z,99599.78
2023-01-30T21:34:12.916Z,99608.25
2023-01-30T21:36:41.061Z,99600.25
2023-01-30T21:39:31.226Z,99592.59
2023-01-30T21:42:18.389Z,99579.00
2023-01-30T21:44:47.021Z,99578.09
2023-01-30T21:47:14.683Z,99563.34
2023-01-30T21:49:43.993Z,99563.09
2023-01-30T21:52:11.618Z,99575.81
2023-01-30T21:54:39.373Z,99571.19
2023-01-30T21:57:06.939Z,99574.13
2023-01-30T21:59:35.310Z,99570.06
2023-01-30T22:02:03.065Z,99567.13
2023-01-30T22:04:30.968Z,99564.97
2023-01-30T22:06:58.503Z,99565.66
2023-01-30T22:09:26.021Z,99576.44
2023-01-30T22:11:54.975Z,99575.41
2023-01-30T22:14:22.740Z,99575.28
2023-01-30T22:16:50.292Z,99571.12
2023-01-30T22:19:17.983Z,99574.09
2023-01-30T22:21:45.495Z,99569.66
2023-01-30T22:24:13.277Z,99572.72
2023-01-30T22:26:41.034Z,99569.59
2023-01-30T22:29:09.331Z,99562.12
2023-01-30T22:31:38.712Z,99555.72
2023-01-30T22:34:06.701Z,99566.44
2023-01-30T22:36:35.210Z,99567.97
2023-01-30T22:39:03.664Z,99575.28
2023-01-30T22:41:34.833Z,99570.31
2023-01-30T22:44:03.488Z,99574.25
2023-01-30T22:46:36.546Z,99563.69
2023-01-30T22:49:05.714Z,99572.66
2023-01-30T22:51:38.821Z,99565.97
2023-01-30T22:54:10.606Z,99568.19
2023-01-30T22:56:41.508Z,99562.66
2023-01-30T22:59:09.602Z,99560.53
2023-01-30T23:01:39.831Z,99568.69
2023-01-30T23:04:11.811Z,99566.44
2023-01-30T23:06:40.537Z,99568.00
2023-01-30T23:09:10.232Z,99572.16
2023-01-30T23:11:43.498Z,99566.94
2023-01-30T23:14:15.209Z,99565.34
2023-01-30T23:16:44.584Z,99558.28
2023-01-30T23:19:13.730Z,99558.47
2023-01-30T23:21:44.152Z,99549.78
2023-01-30T23:24:17.620Z,99544.91
2023-01-30T23:26:47.626Z,99555.62
2023-01-30T23:29:18.691Z,99557.31
2023-01-30T23:31:47.411Z,99565.72
2023-01-30T23:34:18.173Z,99577.19
2023-01-30T23:36:46.562Z,99554.56
2023-01-30T23:39:14.838Z,99567.94
2023-01-30T23:41:43.043Z,99560.09
2023-01-30T23:44:10.991Z,99544.37
2023-01-30T23:46:42.452Z,99544.88
2023-01-30T23:49:15.138Z,99535.03
2023-01-30T23:51:44.214Z,99523.56
2023-01-30T23:54:13.753Z,99524.72
2023-01-30T23:56:43.029Z,99523.75
2023-01-30T23:59:11.261Z,99532.78
